createdAt,value
2023-05-19T00:01:39.042Z,100769.19
2023-05-19T00:04:10.492Z,100766.50
2023-05-19T00:06:42.937Z,100738.50
2023-05-19T00:09:14.103Z,100764.53
2023-05-19T00:11:45.021Z,100767.25
2023-05-19T00:14:16.391Z,100773.03
2023-05-19T00:16:47.490Z,100754.13
2023-05-19T00:19:19.134Z,100779.84
2023-05-19T00:21:51.459Z,100772.53
2023-05-19T00:24:22.474Z,100784.34
2023-05-19T00:26:53.358Z,100783.06
2023-05-19T00:29:24.512Z,100789.72
2023-05-19T00:31:56.413Z,100780.97
2023-05-19T00:34:30.187Z,100782.16
2023-05-19T00:37:01.064Z,100752.78
2023-05-19T00:39:32.491Z,100790.44
2023-05-19T00:42:04.338Z,100790.91
2023-05-19T00:44:35.466Z,100792.94
2023-05-19T00:47:06.525Z,100782.16
2023-05-19T00:49:38.372Z,100793.09
2023-05-19T00:52:09.632Z,100800.53
2023-05-19T00:54:42.509Z,100801.94
2023-05-19T00:57:23.121Z,100805.06
2023-05-19T00:59:54.723Z,100816.47
2023-05-19T01:02:25.910Z,100806.69
2023-05-19T01:04:58.816Z,100817.69
2023-05-19T01:07:30.522Z,100746.03
2023-05-19T01:10:01.889Z,100824.09
2023-05-19T01:12:33.386Z,100820.94
2023-05-19T01:15:06.946Z,100817.16
2023-05-19T01:17:37.413Z,100819.97
2023-05-19T01:20:27.354Z,100801.59
2023-05-19T01:23:41.512Z,100835.63
2023-05-19T01:26:30.644Z,100826.72
2023-05-19T01:29:18.931Z,100832.91
2023-05-19T01:31:51.869Z,100816.03
2023-05-19T01:34:25.430Z,100839.06
2023-05-19T01:36:57.729Z,100822.41
2023-05-19T01:39:28.033Z,100829.72
2023-05-19T01:42:00.406Z,100832.13
2023-05-19T01:44:33.494Z,100826.84
2023-05-19T01:47:05.727Z,100827.41
2023-05-19T01:49:36.515Z,100816.44
2023-05-19T01:52:08.179Z,100823.53
2023-05-19T01:54:39.402Z,100829.22
2023-05-19T01:57:33.946Z,100836.66
2023-05-19T02:00:24.801Z,100837.38
2023-05-19T02:03:00.616Z,100835.38
2023-05-19T02:05:40.951Z,100843.66
2023-05-19T02:08:36.155Z,100827.09
2023-05-19T02:11:34.005Z,100854.53
2023-05-19T02:14:34.829Z,100852.31
2023-05-19T02:17:07.685Z,100837.94
2023-05-19T02:19:44.143Z,100745.69
2023-05-19T02:22:14.999Z,100836.53
2023-05-19T02:24:47.862Z,100835.47
2023-05-19T02:27:19.145Z,100833.94
2023-05-19T02:29:50.529Z,100830.63
2023-05-19T02:32:22.181Z,100834.91
2023-05-19T02:34:54.613Z,100825.31
2023-05-19T02:37:29.824Z,100822.94
2023-05-19T02:40:01.153Z,100831.72
2023-05-19T02:42:33.224Z,100832.66
2023-05-19T02:45:04.428Z,100831.38
2023-05-19T02:47:37.160Z,100836.56
2023-05-19T02:50:10.628Z,100829.59
2023-05-19T02:52:41.777Z,100833.38
2023-05-19T02:55:18.307Z,100824.50
2023-05-19T02:57:49.715Z,100834.91
2023-05-19T03:00:21.487Z,100835.75
2023-05-19T03:02:54.470Z,100832.56
2023-05-19T03:05:25.631Z,100831.06
2023-05-19T03:07:56.670Z,100833.28
2023-05-19T03:10:27.826Z,100815.06
2023-05-19T03:12:58.859Z,100829.28
2023-05-19T03:15:30.061Z,100830.09
2023-05-19T03:18:01.052Z,100809.31
2023-05-19T03:20:32.675Z,100826.34
2023-05-19T03:23:04.022Z,100806.72
2023-05-19T03:25:35.445Z,100792.19
2023-05-19T03:28:07.039Z,100813.91
2023-05-19T03:30:41.339Z,100816.41
2023-05-19T03:33:19.662Z,100813.22
2023-05-19T03:35:51.111Z,100802.09
2023-05-19T03:38:25.174Z,100816.13
2023-05-19T03:41:01.504Z,100806.94
2023-05-19T03:43:32.640Z,100802.69
2023-05-19T03:46:07.315Z,100789.09
2023-05-19T03:49:17.772Z,100740.88
2023-05-19T03:52:07.111Z,100796.06
2023-05-19T03:54:54.514Z,100786.25
2023-05-19T03:57:26.158Z,100788.25
2023-05-19T04:00:00.110Z,100780.69
2023-05-19T04:02:38.274Z,100760.38
2023-05-19T04:05:12.114Z,100771.81
2023-05-19T04:07:44.421Z,100770.50
2023-05-19T04:10:16.087Z,100758.56
2023-05-19T04:12:47.743Z,100756.44
2023-05-19T04:15:19.831Z,100750.41
2023-05-19T04:17:51.333Z,100747.91
2023-05-19T04:20:26.543Z,100745.63
2023-05-19T04:22:59.176Z,100745.19
2023-05-19T04:25:30.057Z,100748.50
2023-05-19T04:28:02.392Z,100742.56
2023-05-19T04:30:34.915Z,100737.13
2023-05-19T04:33:06.203Z,100739.13
2023-05-19T04:35:39.601Z,100735.59
2023-05-19T04:38:13.748Z,100732.38
2023-05-19T04:40:45.914Z,100724.94
2023-05-19T04:43:17.284Z,100732.47
2023-05-19T04:45:51.671Z,100727.03
2023-05-19T04:48:26.130Z,100720.84
2023-05-19T04:50:57.203Z,100721.69
2023-05-19T04:53:28.242Z,100717.91
2023-05-19T04:56:00.478Z,100688.38
2023-05-19T04:58:33.371Z,100698.84
2023-05-19T05:01:05.422Z,100704.97
2023-05-19T05:03:39.602Z,100700.09
2023-05-19T05:06:10.649Z,100699.91
2023-05-19T05:08:42.792Z,100697.88
2023-05-19T05:11:33.659Z,100684.63
2023-05-19T05:14:06.016Z,100678.09
2023-05-19T05:16:37.783Z,100677.94
2023-05-19T05:19:10.459Z,100684.56
2023-05-19T05:21:42.890Z,100680.16
2023-05-19T05:24:15.223Z,100666.56
2023-05-19T05:26:52.166Z,100661.78
2023-05-19T05:29:23.572Z,100660.69
2023-05-19T05:31:54.716Z,100652.34
2023-05-19T05:34:27.367Z,100656.47
2023-05-19T05:36:59.157Z,100652.16
2023-05-19T05:39:31.003Z,100650.53
2023-05-19T05:42:02.417Z,100650.03
2023-05-19T05:44:35.635Z,100646.28
2023-05-19T05:47:08.582Z,100637.63
2023-05-19T05:49:39.530Z,100639.94
2023-05-19T05:52:13.356Z,100622.97
2023-05-19T05:54:49.550Z,100595.06
2023-05-19T05:57:23.208Z,100611.66
2023-05-19T05:59:54.905Z,100601.88
2023-05-19T06:02:26.558Z,100590.41
2023-05-19T06:04:58.638Z,100583.09
2023-05-19T06:07:29.797Z,100590.56
2023-05-19T06:10:01.204Z,100579.69
2023-05-19T06:12:53.288Z,100580.81
2023-05-19T06:15:26.244Z,100567.88
2023-05-19T06:18:11.077Z,100540.72
2023-05-19T06:20:43.494Z,100525.91
2023-05-19T06:23:14.512Z,100563.88
2023-05-19T06:25:45.792Z,100546.97
2023-05-19T06:28:17.799Z,100549.81
2023-05-19T06:30:48.730Z,100546.47
2023-05-19T06:33:28.224Z,100528.47
2023-05-19T06:36:01.404Z,100448.22
2023-05-19T06:38:33.902Z,100529.78
2023-05-19T06:41:04.527Z,100526.00
2023-05-19T06:43:35.471Z,100518.94
2023-05-19T06:46:07.578Z,100511.63
2023-05-19T06:48:38.507Z,100504.84
2023-05-19T06:51:11.662Z,100503.00
2023-05-19T06:53:44.364Z,100498.91
2023-05-19T06:56:16.970Z,100492.19
2023-05-19T06:58:48.906Z,100480.78
2023-05-19T07:01:20.436Z,100478.09
2023-05-19T07:03:58.120Z,100477.59
2023-05-19T07:06:29.704Z,100467.50
2023-05-19T07:09:01.320Z,100464.28
2023-05-19T07:11:33.712Z,100452.88
2023-05-19T07:14:05.919Z,100448.25
2023-05-19T07:16:37.457Z,100443.91
2023-05-19T07:19:09.704Z,100445.84
2023-05-19T07:21:41.347Z,100438.47
2023-05-19T07:24:12.706Z,100396.31
2023-05-19T07:26:44.271Z,100448.91
2023-05-19T07:29:15.447Z,100440.44
2023-05-19T07:31:47.230Z,100452.78
2023-05-19T07:34:18.556Z,100449.50
2023-05-19T07:36:49.478Z,100450.69
2023-05-19T07:39:21.574Z,100430.38
2023-05-19T07:41:56.963Z,100443.56
2023-05-19T07:44:28.671Z,100445.22
2023-05-19T07:47:00.562Z,100441.97
2023-05-19T07:49:31.674Z,100434.31
2023-05-19T07:52:02.946Z,100439.81
2023-05-19T07:54:33.968Z,100436.53
2023-05-19T07:57:05.211Z,100440.91
2023-05-19T07:59:36.124Z,100438.75
2023-05-19T08:02:07.885Z,100434.34
2023-05-19T08:04:41.781Z,100419.28
2023-05-19T08:07:13.115Z,100441.50
2023-05-19T08:09:44.304Z,100434.13
2023-05-19T08:12:15.141Z,100399.72
2023-05-19T08:14:46.091Z,100422.13
2023-05-19T08:17:17.680Z,100392.31
2023-05-19T08:19:48.574Z,100407.94
2023-05-19T08:22:19.866Z,100397.28
2023-05-19T08:24:53.615Z,100405.50
2023-05-19T08:27:25.450Z,100391.03
2023-05-19T08:29:56.943Z,100407.16
2023-05-19T08:32:29.255Z,100403.88
2023-05-19T08:35:00.543Z,100403.31
2023-05-19T08:37:34.212Z,100391.88
2023-05-19T08:40:06.979Z,100386.94
2023-05-19T08:42:38.431Z,100400.63
2023-05-19T08:45:09.997Z,100391.88
2023-05-19T08:47:47.634Z,100390.78
2023-05-19T08:50:26.454Z,100306.50
2023-05-19T08:53:33.015Z,100374.88
2023-05-19T08:56:17.255Z,100337.72
2023-05-19T08:58:50.027Z,100382.06
2023-05-19T09:01:22.574Z,100374.97
2023-05-19T09:03:54.490Z,100361.03
2023-05-19T09:06:26.663Z,100360.22
2023-05-19T09:08:58.139Z,100367.31
2023-05-19T09:11:29.107Z,100369.50
2023-05-19T09:14:00.414Z,100365.69
2023-05-19T09:16:31.880Z,100362.97
2023-05-19T09:19:03.301Z,100355.34
2023-05-19T09:21:44.562Z,100318.09
2023-05-19T09:24:15.920Z,100345.47
2023-05-19T09:26:47.381Z,100336.13
2023-05-19T09:29:18.840Z,100341.44
2023-05-19T09:31:53.836Z,100342.59
2023-05-19T09:34:28.237Z,100346.38
2023-05-19T09:37:01.256Z,100352.94
2023-05-19T09:39:34.120Z,100348.75
2023-05-19T09:42:08.295Z,100338.63
2023-05-19T09:44:39.616Z,100361.03
2023-05-19T09:47:12.550Z,100358.28
2023-05-19T09:49:49.163Z,100357.75
2023-05-19T09:52:20.443Z,100364.78
2023-05-19T09:54:53.172Z,100377.56
2023-05-19T09:57:30.950Z,100398.78
2023-05-19T10:00:09.987Z,100285.78
2023-05-19T10:02:45.291Z,100396.31
2023-05-19T10:05:24.093Z,100369.19
2023-05-19T10:07:58.626Z,100405.25
2023-05-19T10:10:30.255Z,100395.41
2023-05-19T10:13:01.987Z,100397.31
2023-05-19T10:15:36.195Z,100399.19
2023-05-19T10:18:12.830Z,100404.66
2023-05-19T10:20:45.560Z,100395.47
2023-05-19T10:23:16.739Z,100392.25
2023-05-19T10:25:50.611Z,100370.38
2023-05-19T10:28:26.780Z,100395.59
2023-05-19T10:31:03.531Z,100315.66
2023-05-19T10:33:55.893Z,100409.25
2023-05-19T10:36:50.383Z,100423.19
2023-05-19T10:39:37.561Z,100417.63
2023-05-19T10:42:21.136Z,100414.00
2023-05-19T10:45:13.806Z,100419.44
2023-05-19T10:47:45.860Z,100429.78
2023-05-19T10:50:17.459Z,100417.75
2023-05-19T10:52:59.339Z,100410.09
2023-05-19T10:55:54.292Z,100393.00
2023-05-19T10:58:46.663Z,100415.19
2023-05-19T11:01:19.752Z,100427.09
2023-05-19T11:03:53.899Z,100433.16
2023-05-19T11:06:33.528Z,100353.75
2023-05-19T11:09:15.549Z,100434.28
2023-05-19T11:11:52.565Z,100423.91
2023-05-19T11:14:31.061Z,100423.91
2023-05-19T11:17:02.912Z,100440.09
2023-05-19T11:19:36.982Z,100343.94
2023-05-19T11:22:16.178Z,100421.16
2023-05-19T11:24:53.731Z,100451.00
2023-05-19T11:27:36.340Z,100449.88
2023-05-19T11:30:20.260Z,100445.78
2023-05-19T11:32:51.721Z,100442.25
2023-05-19T11:35:24.102Z,100428.56
2023-05-19T11:37:57.235Z,100445.78
2023-05-19T11:40:29.693Z,100452.34
2023-05-19T11:43:01.142Z,100454.50
2023-05-19T11:45:34.784Z,100458.34
2023-05-19T11:48:13.221Z,100461.59
2023-05-19T11:50:46.099Z,100463.50
2023-05-19T11:53:23.391Z,100457.47
2023-05-19T11:55:54.903Z,100461.84
2023-05-19T11:58:29.377Z,100465.34
2023-05-19T12:01:06.400Z,100475.72
2023-05-19T12:03:37.687Z,100481.75
2023-05-19T12:06:10.014Z,100479.91
2023-05-19T12:08:41.585Z,100480.97
2023-05-19T12:11:18.229Z,100489.91
2023-05-19T12:13:52.361Z,100487.66
2023-05-19T12:16:24.292Z,100494.97
2023-05-19T12:18:55.066Z,100499.66
2023-05-19T12:21:33.806Z,100502.00
2023-05-19T12:24:07.449Z,100480.50
2023-05-19T12:26:39.206Z,100498.59
2023-05-19T12:29:10.462Z,100510.09
2023-05-19T12:31:43.241Z,100512.19
2023-05-19T12:34:15.046Z,100495.69
2023-05-19T12:36:46.653Z,100529.09
2023-05-19T12:39:19.516Z,100533.97
2023-05-19T12:41:52.298Z,100531.53
2023-05-19T12:44:23.524Z,100515.00
2023-05-19T12:46:54.611Z,100535.03
2023-05-19T12:49:28.663Z,100544.78
2023-05-19T12:52:11.868Z,100542.59
2023-05-19T12:54:44.405Z,100546.16
2023-05-19T12:57:18.935Z,100548.00
2023-05-19T12:59:51.923Z,100542.78
2023-05-19T13:02:23.950Z,100546.41
2023-05-19T13:04:55.975Z,100545.09
2023-05-19T13:07:28.688Z,100545.44
2023-05-19T13:10:00.216Z,100563.00
2023-05-19T13:12:33.909Z,100564.75
2023-05-19T13:15:05.077Z,100559.91
2023-05-19T13:17:38.145Z,100559.97
2023-05-19T13:20:13.510Z,100572.44
2023-05-19T13:22:45.282Z,100578.81
2023-05-19T13:25:17.354Z,100565.44
2023-05-19T13:27:49.992Z,100579.63
2023-05-19T13:30:23.582Z,100580.09
2023-05-19T13:32:55.289Z,100591.94
2023-05-19T13:35:27.816Z,100593.84
2023-05-19T13:37:59.459Z,100589.16
2023-05-19T13:40:34.384Z,100601.53
2023-05-19T13:43:10.268Z,100609.34
2023-05-19T13:45:43.735Z,100614.94
2023-05-19T13:48:16.101Z,100610.69
2023-05-19T13:50:48.686Z,100617.03
2023-05-19T13:53:21.159Z,100627.78
2023-05-19T13:55:54.458Z,100623.91
2023-05-19T13:58:26.225Z,100624.34
2023-05-19T14:01:01.554Z,100625.66
2023-05-19T14:03:33.107Z,100624.84
2023-05-19T14:06:07.048Z,100638.97
2023-05-19T14:08:38.482Z,100642.16
2023-05-19T14:11:09.807Z,100642.75
2023-05-19T14:13:43.336Z,100645.69
2023-05-19T14:16:14.782Z,100647.38
2023-05-19T14:18:47.129Z,100643.25
2023-05-19T14:21:21.406Z,100640.53
2023-05-19T14:23:55.669Z,100653.28
2023-05-19T14:26:29.329Z,100647.72
2023-05-19T14:29:02.201Z,100651.25
2023-05-19T14:31:35.564Z,100653.38
2023-05-19T14:34:07.437Z,100663.06
2023-05-19T14:36:38.756Z,100654.78
2023-05-19T14:39:11.806Z,100655.75
2023-05-19T14:41:43.270Z,100659.03
2023-05-19T14:44:15.023Z,100659.88
2023-05-19T14:46:46.680Z,100661.63
2023-05-19T14:49:18.544Z,100651.59
2023-05-19T14:51:49.804Z,100677.53
2023-05-19T14:54:21.505Z,100673.88
2023-05-19T14:56:57.173Z,100680.97
2023-05-19T14:59:28.823Z,100682.94
2023-05-19T15:02:04.782Z,100693.19
2023-05-19T15:04:35.792Z,100688.03
2023-05-19T15:07:11.413Z,100684.31
2023-05-19T15:09:43.049Z,100692.84
2023-05-19T15:12:14.572Z,100678.16
2023-05-19T15:14:48.762Z,100689.13
2023-05-19T15:17:20.501Z,100684.66
2023-05-19T15:19:52.243Z,100681.19
2023-05-19T15:22:23.884Z,100692.28
2023-05-19T15:24:55.935Z,100696.03
2023-05-19T15:27:27.259Z,100695.06
2023-05-19T15:30:00.525Z,100700.03
2023-05-19T15:32:32.231Z,100701.56
2023-05-19T15:35:03.938Z,100688.69
2023-05-19T15:37:35.404Z,100701.22
2023-05-19T15:40:07.534Z,100693.75
2023-05-19T15:42:39.096Z,100700.81
2023-05-19T15:45:13.380Z,100697.06
2023-05-19T15:47:44.698Z,100692.09
2023-05-19T15:50:16.897Z,100695.50
2023-05-19T15:52:51.305Z,100697.75
2023-05-19T15:55:23.013Z,100697.38
2023-05-19T15:57:57.281Z,100700.56
2023-05-19T16:00:30.115Z,100704.53
2023-05-19T16:03:01.561Z,100703.94
2023-05-19T16:05:33.192Z,100693.63
2023-05-19T16:08:06.508Z,100697.34
2023-05-19T16:10:41.197Z,100693.16
2023-05-19T16:13:12.607Z,100684.59
2023-05-19T16:15:52.220Z,100682.31
2023-05-19T16:18:24.355Z,100665.63
2023-05-19T16:20:57.958Z,100670.72
2023-05-19T16:23:32.356Z,100673.22
2023-05-19T16:26:04.180Z,100669.53
2023-05-19T16:28:35.487Z,100668.47
2023-05-19T16:31:08.566Z,100628.19
2023-05-19T16:33:41.595Z,100669.53
2023-05-19T16:36:13.357Z,100660.81
2023-05-19T16:38:44.599Z,100666.69
2023-05-19T16:41:16.085Z,100646.81
2023-05-19T16:43:47.354Z,100658.78
2023-05-19T16:46:18.832Z,100660.66
2023-05-19T16:48:50.164Z,100651.81
2023-05-19T16:51:23.155Z,100653.44
2023-05-19T16:53:54.356Z,100657.22
2023-05-19T16:56:25.856Z,100641.78
2023-05-19T16:58:57.037Z,100653.53
2023-05-19T17:01:28.630Z,100645.63
2023-05-19T17:03:59.850Z,100642.31
2023-05-19T17:06:31.566Z,100636.88
2023-05-19T17:09:04.092Z,100646.91
2023-05-19T17:11:38.211Z,100639.59
2023-05-19T17:14:10.620Z,100622.00
2023-05-19T17:16:43.714Z,100630.28
2023-05-19T17:19:15.135Z,100630.34
2023-05-19T17:21:46.251Z,100635.97
2023-05-19T17:24:17.830Z,100625.91
2023-05-19T17:26:49.157Z,100645.78
2023-05-19T17:29:20.335Z,100644.59
2023-05-19T17:31:52.344Z,100643.75
2023-05-19T17:34:23.604Z,100649.84
2023-05-19T17:36:54.955Z,100643.78
2023-05-19T17:39:26.452Z,100645.88
2023-05-19T17:41:57.664Z,100649.50
2023-05-19T17:44:28.677Z,100635.50
2023-05-19T17:47:00.361Z,100645.16
2023-05-19T17:49:31.441Z,100636.41
2023-05-19T17:52:03.036Z,100651.38
2023-05-19T17:54:34.539Z,100648.91
2023-05-19T17:57:09.578Z,100649.34
2023-05-19T17:59:41.188Z,100648.31
2023-05-19T18:02:16.663Z,100635.66
2023-05-19T18:04:48.173Z,100612.47
2023-05-19T18:07:21.149Z,100637.31
2023-05-19T18:09:54.221Z,100522.81
2023-05-19T18:12:25.671Z,100624.44
2023-05-19T18:14:56.825Z,100612.41
2023-05-19T18:17:28.570Z,100607.63
2023-05-19T18:19:59.524Z,100621.97
2023-05-19T18:22:30.816Z,100606.56
2023-05-19T18:25:01.799Z,100609.94
2023-05-19T18:27:34.779Z,100586.38
2023-05-19T18:30:05.896Z,100603.31
2023-05-19T18:32:37.025Z,100589.19
2023-05-19T18:35:08.495Z,100588.00
2023-05-19T18:37:39.561Z,100596.69
2023-05-19T18:40:10.855Z,100591.28
2023-05-19T18:42:41.833Z,100590.97
2023-05-19T18:45:13.056Z,100599.22
2023-05-19T18:47:44.173Z,100594.88
2023-05-19T18:50:15.760Z,100601.72
2023-05-19T18:52:47.044Z,100546.72
2023-05-19T18:55:18.116Z,100575.25
2023-05-19T18:57:55.779Z,100593.69
2023-05-19T19:00:30.029Z,100590.97
2023-05-19T19:03:01.099Z,100588.47
2023-05-19T19:05:32.269Z,100576.84
2023-05-19T19:08:03.761Z,100581.63
2023-05-19T19:10:40.484Z,100581.47
2023-05-19T19:13:11.373Z,100581.47
2023-05-19T19:15:42.075Z,100582.91
2023-05-19T19:18:14.087Z,100580.88
2023-05-19T19:20:44.873Z,100589.59
2023-05-19T19:23:15.773Z,100577.75
2023-05-19T19:25:46.501Z,100557.63
2023-05-19T19:28:17.852Z,100564.69
2023-05-19T19:30:51.874Z,100556.97
2023-05-19T19:33:23.089Z,100546.84
2023-05-19T19:35:53.763Z,100556.81
2023-05-19T19:38:24.531Z,100561.97
2023-05-19T19:40:55.369Z,100567.38
2023-05-19T19:43:26.565Z,100566.19
2023-05-19T19:46:04.347Z,100569.09
2023-05-19T19:48:35.384Z,100561.59
2023-05-19T19:51:06.115Z,100553.19
2023-05-19T19:53:37.252Z,100545.03
2023-05-19T19:56:08.573Z,100573.63
2023-05-19T19:58:39.657Z,100573.91
2023-05-19T20:01:10.496Z,100564.13
2023-05-19T20:03:41.395Z,100538.09
2023-05-19T20:06:12.084Z,100546.72
2023-05-19T20:08:43.201Z,100541.34
2023-05-19T20:11:17.926Z,100541.59
2023-05-19T20:13:48.909Z,100545.56
2023-05-19T20:16:19.751Z,100544.13
2023-05-19T20:18:51.853Z,100542.25
2023-05-19T20:21:22.592Z,100547.28
2023-05-19T20:23:53.468Z,100535.19
2023-05-19T20:26:24.174Z,100534.78
2023-05-19T20:28:55.340Z,100515.81
2023-05-19T20:31:27.425Z,100525.13
2023-05-19T20:33:59.336Z,100526.94
2023-05-19T20:36:31.664Z,100527.72
2023-05-19T20:39:02.817Z,100526.94
2023-05-19T20:41:33.392Z,100515.56
2023-05-19T20:44:07.772Z,100526.13
2023-05-19T20:46:38.571Z,100527.41
2023-05-19T20:49:09.426Z,100531.53
2023-05-19T20:51:40.094Z,100529.50
2023-05-19T20:54:10.886Z,100507.97
2023-05-19T20:56:41.793Z,100522.88
2023-05-19T20:59:12.827Z,100524.56
2023-05-19T21:01:47.442Z,100527.66
2023-05-19T21:04:18.461Z,100522.06
2023-05-19T21:06:49.190Z,100523.72
2023-05-19T21:09:20.309Z,100531.22
2023-05-19T21:11:50.999Z,100517.09
2023-05-19T21:14:22.612Z,100521.75
2023-05-19T21:16:57.451Z,100525.81
2023-05-19T21:19:28.914Z,100522.94
2023-05-19T21:21:59.677Z,100514.69
2023-05-19T21:24:30.440Z,100542.47
2023-05-19T21:27:01.060Z,100528.78
2023-05-19T21:29:32.022Z,100541.91
2023-05-19T21:32:03.100Z,100547.13
2023-05-19T21:34:34.230Z,100541.28
2023-05-19T21:37:04.899Z,100525.59
2023-05-19T21:39:36.251Z,100551.47
2023-05-19T21:42:07.813Z,100554.59
2023-05-19T21:44:39.229Z,100551.25
2023-05-19T21:47:09.870Z,100555.63
2023-05-19T21:49:41.527Z,100554.00
2023-05-19T21:52:12.476Z,100547.31
2023-05-19T21:54:43.474Z,100553.81
2023-05-19T21:57:14.187Z,100543.44
2023-05-19T21:59:46.193Z,100521.09
2023-05-19T22:02:16.892Z,100530.00
2023-05-19T22:04:47.888Z,100537.22
2023-05-19T22:07:18.576Z,100540.56
2023-05-19T22:09:49.738Z,100545.53
2023-05-19T22:12:20.490Z,100538.09
2023-05-19T22:14:51.660Z,100542.25
2023-05-19T22:17:22.387Z,100544.31
2023-05-19T22:19:53.865Z,100534.16
2023-05-19T22:22:24.540Z,100550.16
2023-05-19T22:24:55.477Z,100555.56
2023-05-19T22:27:26.229Z,100547.53
2023-05-19T22:29:57.081Z,100560.34
2023-05-19T22:32:28.154Z,100576.78
2023-05-19T22:34:59.044Z,100581.78
2023-05-19T22:37:30.392Z,100591.31
2023-05-19T22:40:01.266Z,100597.78
2023-05-19T22:42:32.101Z,100600.09
2023-05-19T22:45:03.070Z,100585.97
2023-05-19T22:47:33.789Z,100598.03
2023-05-19T22:50:04.807Z,100571.09
2023-05-19T22:52:35.459Z,100607.19
2023-05-19T22:55:06.990Z,100602.63
2023-05-19T22:57:37.600Z,100608.84
2023-05-19T23:00:09.667Z,100610.72
2023-05-19T23:02:40.339Z,100626.56
2023-05-19T23:05:11.803Z,100619.78
2023-05-19T23:07:42.598Z,100628.72
2023-05-19T23:10:13.715Z,100611.19
2023-05-19T23:12:44.363Z,100630.72
2023-05-19T23:15:15.458Z,100635.81
2023-05-19T23:17:46.180Z,100636.72
2023-05-19T23:20:17.883Z,100638.47
2023-05-19T23:22:48.535Z,100640.66
2023-05-19T23:25:19.676Z,100627.28
2023-05-19T23:27:50.400Z,100636.88
2023-05-19T23:30:21.273Z,100628.91
2023-05-19T23:32:52.052Z,100646.75
2023-05-19T23:35:22.993Z,100639.81
2023-05-19T23:37:55.183Z,100649.06
2023-05-19T23:40:26.020Z,100640.69
2023-05-19T23:42:56.688Z,100640.84
2023-05-19T23:45:27.751Z,100647.69
2023-05-19T23:47:58.498Z,100645.97
2023-05-19T23:50:29.394Z,100646.81
2023-05-19T23:53:00.153Z,100656.72
2023-05-19T23:55:30.949Z,100662.16
2023-05-19T23:58:01.695Z,100672.06
